sensor_id;sensor_type;location;lat;lon;timestamp;P1;durP1;ratioP1;P2;durP2;ratioP2
62711;SDS011;48772;55.586;37.730;2022-12-20T00:01:08;5.72;;;3.22;;
62711;SDS011;48772;55.586;37.730;2022-12-20T00:03:35;4.78;;;2.72;;
62711;SDS011;48772;55.586;37.730;2022-12-20T00:06:02;6.10;;;3.53;;
62711;SDS011;48772;55.586;37.730;2022-12-20T00:08:28;6.50;;;3.72;;
62711;SDS011;48772;55.586;37.730;2022-12-20T00:10:54;5.43;;;3.30;;
62711;SDS011;48772;55.586;37.730;2022-12-20T00:13:20;5.65;;;3.13;;
62711;SDS011;48772;55.586;37.730;2022-12-20T00:15:45;5.00;;;2.95;;
62711;SDS011;48772;55.586;37.730;2022-12-20T00:18:11;6.55;;;2.20;;
62711;SDS011;48772;55.586;37.730;2022-12-20T00:20:37;6.30;;;3.45;;
62711;SDS011;48772;55.586;37.730;2022-12-20T00:23:03;5.88;;;3.45;;
62711;SDS011;48772;55.586;37.730;2022-12-20T00:25:32;4.25;;;3.03;;
62711;SDS011;48772;55.586;37.730;2022-12-20T00:27:58;4.13;;;3.13;;
62711;SDS011;48772;55.586;37.730;2022-12-20T00:30:23;5.78;;;2.58;;
62711;SDS011;48772;55.586;37.730;2022-12-20T00:32:49;8.02;;;2.78;;
62711;SDS011;48772;55.586;37.730;2022-12-20T00:35:15;7.78;;;3.78;;
62711;SDS011;48772;55.586;37.730;2022-12-20T00:37:41;6.50;;;3.50;;
62711;SDS011;48772;55.586;37.730;2022-12-20T00:40:07;8.38;;;4.50;;
62711;SDS011;48772;55.586;37.730;2022-12-20T00:42:33;7.38;;;3.75;;
62711;SDS011;48772;55.586;37.730;2022-12-20T00:44:58;8.90;;;4.35;;
62711;SDS011;48772;55.586;37.730;2022-12-20T00:47:24;7.38;;;4.63;;
62711;SDS011;48772;55.586;37.730;2022-12-20T00:49:50;11.40;;;4.05;;
62711;SDS011;48772;55.586;37.730;2022-12-20T00:52:16;5.43;;;3.33;;
62711;SDS011;48772;55.586;37.730;2022-12-20T00:54:42;9.15;;;4.40;;
62711;SDS011;48772;55.586;37.730;2022-12-20T00:57:08;5.30;;;2.58;;
62711;SDS011;48772;55.586;37.730;2022-12-20T00:59:34;4.03;;;2.63;;
62711;SDS011;48772;55.586;37.730;2022-12-20T01:01:59;8.82;;;3.47;;
62711;SDS011;48772;55.586;37.730;2022-12-20T01:04:25;6.32;;;3.30;;
62711;SDS011;48772;55.586;37.730;2022-12-20T01:06:51;6.03;;;2.88;;
62711;SDS011;48772;55.586;37.730;2022-12-20T01:09:17;6.57;;;3.53;;
62711;SDS011;48772;55.586;37.730;2022-12-20T01:11:45;3.42;;;2.85;;
62711;SDS011;48772;55.586;37.730;2022-12-20T01:14:12;5.00;;;2.80;;
62711;SDS011;48772;55.586;37.730;2022-12-20T01:16:40;5.70;;;2.90;;
62711;SDS011;48772;55.586;37.730;2022-12-20T01:19:09;3.03;;;2.63;;
62711;SDS011;48772;55.586;37.730;2022-12-20T01:21:36;4.00;;;2.65;;
62711;SDS011;48772;55.586;37.730;2022-12-20T01:24:15;6.30;;;3.60;;
62711;SDS011;48772;55.586;37.730;2022-12-20T01:26:42;3.83;;;2.70;;
62711;SDS011;48772;55.586;37.730;2022-12-20T01:29:09;10.18;;;3.63;;
62711;SDS011;48772;55.586;37.730;2022-12-20T01:31:35;5.20;;;3.17;;
62711;SDS011;48772;55.586;37.730;2022-12-20T01:34:01;4.72;;;3.42;;
62711;SDS011;48772;55.586;37.730;2022-12-20T01:36:29;4.65;;;3.53;;
62711;SDS011;48772;55.586;37.730;2022-12-20T01:39:01;6.03;;;3.45;;
62711;SDS011;48772;55.586;37.730;2022-12-20T01:41:29;4.07;;;2.20;;
62711;SDS011;48772;55.586;37.730;2022-12-20T01:43:59;2.67;;;2.42;;
62711;SDS011;48772;55.586;37.730;2022-12-20T01:46:26;4.20;;;2.63;;
62711;SDS011;48772;55.586;37.730;2022-12-20T01:48:54;7.88;;;4.63;;
62711;SDS011;48772;55.586;37.730;2022-12-20T01:51:24;3.30;;;2.75;;
62711;SDS011;48772;55.586;37.730;2022-12-20T01:53:57;4.00;;;2.95;;
62711;SDS011;48772;55.586;37.730;2022-12-20T01:56:49;4.75;;;3.33;;
62711;SDS011;48772;55.586;37.730;2022-12-20T01:59:19;4.95;;;3.38;;
62711;SDS011;48772;55.586;37.730;2022-12-20T02:01:45;6.82;;;3.15;;
62711;SDS011;48772;55.586;37.730;2022-12-20T02:04:11;6.88;;;4.03;;
62711;SDS011;48772;55.586;37.730;2022-12-20T02:06:37;4.68;;;2.90;;
62711;SDS011;48772;55.586;37.730;2022-12-20T02:09:03;8.85;;;3.80;;
62711;SDS011;48772;55.586;37.730;2022-12-20T02:25:35;5.85;;;3.35;;
62711;SDS011;48772;55.586;37.730;2022-12-20T02:31:10;10.30;;;4.50;;
62711;SDS011;48772;55.586;37.730;2022-12-20T02:33:42;11.32;;;5.25;;
62711;SDS011;48772;55.586;37.730;2022-12-20T02:36:17;9.75;;;4.88;;
62711;SDS011;48772;55.586;37.730;2022-12-20T02:38:45;12.40;;;5.15;;
62711;SDS011;48772;55.586;37.730;2022-12-20T02:41:19;7.43;;;4.43;;
62711;SDS011;48772;55.586;37.730;2022-12-20T02:43:48;7.43;;;4.38;;
62711;SDS011;48772;55.586;37.730;2022-12-20T02:46:39;7.00;;;4.65;;
62711;SDS011;48772;55.586;37.730;2022-12-20T02:49:09;14.82;;;5.90;;
62711;SDS011;48772;55.586;37.730;2022-12-20T02:51:39;11.25;;;4.80;;
62711;SDS011;48772;55.586;37.730;2022-12-20T02:54:09;13.25;;;7.47;;
62711;SDS011;48772;55.586;37.730;2022-12-20T02:56:41;10.13;;;5.40;;
62711;SDS011;48772;55.586;37.730;2022-12-20T03:01:50;9.05;;;4.28;;
62711;SDS011;48772;55.586;37.730;2022-12-20T03:04:22;15.35;;;7.13;;
62711;SDS011;48772;55.586;37.730;2022-12-20T03:07:04;9.57;;;5.35;;
62711;SDS011;48772;55.586;37.730;2022-12-20T03:09:36;12.70;;;6.07;;
62711;SDS011;48772;55.586;37.730;2022-12-20T03:12:04;9.07;;;4.72;;
62711;SDS011;48772;55.586;37.730;2022-12-20T03:14:33;14.80;;;5.65;;
62711;SDS011;48772;55.586;37.730;2022-12-20T03:17:01;13.02;;;6.35;;
62711;SDS011;48772;55.586;37.730;2022-12-20T03:19:28;16.52;;;6.95;;
62711;SDS011;48772;55.586;37.730;2022-12-20T03:21:55;13.63;;;5.28;;
62711;SDS011;48772;55.586;37.730;2022-12-20T03:24:21;15.40;;;7.63;;
62711;SDS011;48772;55.586;37.730;2022-12-20T03:26:48;15.10;;;6.53;;
62711;SDS011;48772;55.586;37.730;2022-12-20T03:29:16;13.23;;;7.93;;
62711;SDS011;48772;55.586;37.730;2022-12-20T03:31:42;13.93;;;6.95;;
62711;SDS011;48772;55.586;37.730;2022-12-20T03:34:09;14.43;;;7.65;;
62711;SDS011;48772;55.586;37.730;2022-12-20T03:36:36;18.38;;;7.82;;
62711;SDS011;48772;55.586;37.730;2022-12-20T03:39:04;14.70;;;6.65;;
62711;SDS011;48772;55.586;37.730;2022-12-20T03:41:34;21.50;;;9.43;;
62711;SDS011;48772;55.586;37.730;2022-12-20T03:44:00;15.75;;;7.47;;
62711;SDS011;48772;55.586;37.730;2022-12-20T03:46:26;15.65;;;7.00;;
62711;SDS011;48772;55.586;37.730;2022-12-20T03:48:53;15.85;;;7.85;;
62711;SDS011;48772;55.586;37.730;2022-12-20T03:51:19;15.55;;;7.60;;
62711;SDS011;48772;55.586;37.730;2022-12-20T03:53:45;14.77;;;6.57;;
62711;SDS011;48772;55.586;37.730;2022-12-20T03:56:12;17.83;;;8.48;;
62711;SDS011;48772;55.586;37.730;2022-12-20T03:58:40;18.63;;;7.78;;
62711;SDS011;48772;55.586;37.730;2022-12-20T04:01:16;15.88;;;6.72;;
62711;SDS011;48772;55.586;37.730;2022-12-20T04:03:44;15.07;;;8.63;;
62711;SDS011;48772;55.586;37.730;2022-12-20T04:06:10;18.98;;;8.10;;
62711;SDS011;48772;55.586;37.730;2022-12-20T04:08:36;16.38;;;7.55;;
62711;SDS011;48772;55.586;37.730;2022-12-20T04:11:02;15.25;;;7.82;;
62711;SDS011;48772;55.586;37.730;2022-12-20T04:13:46;15.35;;;7.47;;
62711;SDS011;48772;55.586;37.730;2022-12-20T04:16:21;20.48;;;8.57;;
62711;SDS011;48772;55.586;37.730;2022-12-20T04:18:52;12.43;;;6.53;;
62711;SDS011;48772;55.586;37.730;2022-12-20T04:21:22;11.95;;;6.32;;
62711;SDS011;48772;55.586;37.730;2022-12-20T04:23:51;14.95;;;7.13;;
62711;SDS011;48772;55.586;37.730;2022-12-20T04:26:17;14.65;;;7.07;;
62711;SDS011;48772;55.586;37.730;2022-12-20T04:28:44;18.48;;;8.13;;
62711;SDS011;48772;55.586;37.730;2022-12-20T04:31:10;18.60;;;7.32;;
62711;SDS011;48772;55.586;37.730;2022-12-20T04:33:37;15.60;;;5.95;;
62711;SDS011;48772;55.586;37.730;2022-12-20T04:36:04;15.93;;;6.03;;
62711;SDS011;48772;55.586;37.730;2022-12-20T04:38:32;10.68;;;5.45;;
62711;SDS011;48772;55.586;37.730;2022-12-20T04:40:58;15.48;;;7.38;;
62711;SDS011;48772;55.586;37.730;2022-12-20T04:43:27;10.27;;;5.80;;
62711;SDS011;48772;55.586;37.730;2022-12-20T04:45:57;17.15;;;5.60;;
62711;SDS011;48772;55.586;37.730;2022-12-20T04:48:24;10.02;;;6.03;;
62711;SDS011;48772;55.586;37.730;2022-12-20T04:50:53;13.98;;;6.57;;
62711;SDS011;48772;55.586;37.730;2022-12-20T04:53:20;8.68;;;4.60;;
62711;SDS011;48772;55.586;37.730;2022-12-20T04:56:06;11.63;;;4.90;;
62711;SDS011;48772;55.586;37.730;2022-12-20T04:58:32;10.18;;;5.10;;
62711;SDS011;48772;55.586;37.730;2022-12-20T05:01:00;11.40;;;5.22;;
62711;SDS011;48772;55.586;37.730;2022-12-20T05:03:33;11.65;;;6.03;;
62711;SDS011;48772;55.586;37.730;2022-12-20T05:06:00;13.90;;;6.45;;
62711;SDS011;48772;55.586;37.730;2022-12-20T05:08:26;9.15;;;4.75;;
62711;SDS011;48772;55.586;37.730;2022-12-20T05:10:52;13.45;;;6.05;;
62711;SDS011;48772;55.586;37.730;2022-12-20T05:13:18;10.57;;;5.60;;
62711;SDS011;48772;55.586;37.730;2022-12-20T05:15:49;16.33;;;5.90;;
62711;SDS011;48772;55.586;37.730;2022-12-20T05:18:16;18.00;;;6.25;;
62711;SDS011;48772;55.586;37.730;2022-12-20T05:20:58;11.30;;;4.75;;
62711;SDS011;48772;55.586;37.730;2022-12-20T05:23:45;9.27;;;4.75;;
62711;SDS011;48772;55.586;37.730;2022-12-20T05:26:36;11.37;;;6.07;;
62711;SDS011;48772;55.586;37.730;2022-12-20T05:29:03;11.77;;;5.67;;
62711;SDS011;48772;55.586;37.730;2022-12-20T05:31:31;20.52;;;7.13;;
62711;SDS011;48772;55.586;37.730;2022-12-20T05:33:58;3.40;;;2.08;;
62711;SDS011;48772;55.586;37.730;2022-12-20T05:36:32;6.00;;;3.47;;
62711;SDS011;48772;55.586;37.730;2022-12-20T05:39:00;11.32;;;5.18;;
62711;SDS011;48772;55.586;37.730;2022-12-20T05:41:27;10.68;;;4.90;;
62711;SDS011;48772;55.586;37.730;2022-12-20T05:43:54;5.77;;;2.90;;
62711;SDS011;48772;55.586;37.730;2022-12-20T05:46:21;7.60;;;3.40;;
62711;SDS011;48772;55.586;37.730;2022-12-20T05:48:52;12.10;;;6.47;;
62711;SDS011;48772;55.586;37.730;2022-12-20T05:51:18;17.85;;;6.95;;
62711;SDS011;48772;55.586;37.730;2022-12-20T05:53:53;14.40;;;6.17;;
62711;SDS011;48772;55.586;37.730;2022-12-20T05:56:27;9.90;;;4.80;;
62711;SDS011;48772;55.586;37.730;2022-12-20T05:58:53;10.73;;;5.03;;
62711;SDS011;48772;55.586;37.730;2022-12-20T06:01:19;9.73;;;4.25;;
62711;SDS011;48772;55.586;37.730;2022-12-20T06:03:45;10.07;;;3.88;;
62711;SDS011;48772;55.586;37.730;2022-12-20T06:06:14;7.35;;;3.58;;
62711;SDS011;48772;55.586;37.730;2022-12-20T06:08:45;17.65;;;6.00;;
62711;SDS011;48772;55.586;37.730;2022-12-20T06:11:19;4.83;;;2.93;;
62711;SDS011;48772;55.586;37.730;2022-12-20T06:13:51;9.57;;;4.63;;
62711;SDS011;48772;55.586;37.730;2022-12-20T06:16:17;9.52;;;4.43;;
62711;SDS011;48772;55.586;37.730;2022-12-20T06:18:45;18.73;;;4.97;;
62711;SDS011;48772;55.586;37.730;2022-12-20T06:21:12;10.57;;;3.67;;
62711;SDS011;48772;55.586;37.730;2022-12-20T06:23:38;7.13;;;3.53;;
62711;SDS011;48772;55.586;37.730;2022-12-20T06:26:06;12.20;;;4.70;;
62711;SDS011;48772;55.586;37.730;2022-12-20T06:28:36;7.97;;;4.15;;
62711;SDS011;48772;55.586;37.730;2022-12-20T06:31:08;5.93;;;2.95;;
62711;SDS011;48772;55.586;37.730;2022-12-20T06:33:41;9.20;;;4.05;;
62711;SDS011;48772;55.586;37.730;2022-12-20T06:36:07;9.73;;;4.57;;
62711;SDS011;48772;55.586;37.730;2022-12-20T06:38:33;9.00;;;3.90;;
62711;SDS011;48772;55.586;37.730;2022-12-20T06:40:59;8.45;;;4.15;;
62711;SDS011;48772;55.586;37.730;2022-12-20T06:43:25;8.45;;;3.90;;
62711;SDS011;48772;55.586;37.730;2022-12-20T06:45:51;6.43;;;2.72;;
62711;SDS011;48772;55.586;37.730;2022-12-20T06:48:17;8.33;;;4.00;;
62711;SDS011;48772;55.586;37.730;2022-12-20T06:50:49;3.75;;;2.58;;
62711;SDS011;48772;55.586;37.730;2022-12-20T06:53:18;9.57;;;3.93;;
62711;SDS011;48772;55.586;37.730;2022-12-20T06:55:46;8.88;;;3.40;;
62711;SDS011;48772;55.586;37.730;2022-12-20T06:58:12;8.02;;;3.97;;
62711;SDS011;48772;55.586;37.730;2022-12-20T07:00:40;8.68;;;4.55;;
62711;SDS011;48772;55.586;37.730;2022-12-20T07:03:07;14.48;;;6.57;;
62711;SDS011;48772;55.586;37.730;2022-12-20T07:05:33;6.88;;;3.53;;
62711;SDS011;48772;55.586;37.730;2022-12-20T07:08:00;12.55;;;4.35;;
62711;SDS011;48772;55.586;37.730;2022-12-20T07:10:29;5.40;;;3.05;;
62711;SDS011;48772;55.586;37.730;2022-12-20T07:12:55;6.90;;;2.55;;
62711;SDS011;48772;55.586;37.730;2022-12-20T07:15:21;7.60;;;3.38;;
62711;SDS011;48772;55.586;37.730;2022-12-20T07:17:47;5.97;;;4.05;;
62711;SDS011;48772;55.586;37.730;2022-12-20T07:20:13;5.90;;;2.67;;
62711;SDS011;48772;55.586;37.730;2022-12-20T07:22:39;1.38;;;1.27;;
62711;SDS011;48772;55.586;37.730;2022-12-20T07:25:05;8.15;;;3.88;;
62711;SDS011;48772;55.586;37.730;2022-12-20T07:27:31;2.28;;;2.03;;
62711;SDS011;48772;55.586;37.730;2022-12-20T07:29:57;4.95;;;3.20;;
62711;SDS011;48772;55.586;37.730;2022-12-20T07:32:32;6.97;;;3.53;;
62711;SDS011;48772;55.586;37.730;2022-12-20T07:35:00;2.88;;;2.30;;
62711;SDS011;48772;55.586;37.730;2022-12-20T07:37:37;5.85;;;3.55;;
62711;SDS011;48772;55.586;37.730;2022-12-20T07:40:03;8.85;;;4.20;;
62711;SDS011;48772;55.586;37.730;2022-12-20T07:42:31;7.38;;;3.88;;
62711;SDS011;48772;55.586;37.730;2022-12-20T07:44:58;8.27;;;4.47;;
62711;SDS011;48772;55.586;37.730;2022-12-20T07:47:24;4.65;;;3.45;;
62711;SDS011;48772;55.586;37.730;2022-12-20T07:49:54;8.85;;;3.75;;
62711;SDS011;48772;55.586;37.730;2022-12-20T07:52:20;7.18;;;4.45;;
62711;SDS011;48772;55.586;37.730;2022-12-20T07:54:53;4.82;;;2.80;;
62711;SDS011;48772;55.586;37.730;2022-12-20T07:57:31;7.78;;;3.85;;
62711;SDS011;48772;55.586;37.730;2022-12-20T08:00:06;7.50;;;3.63;;
62711;SDS011;48772;55.586;37.730;2022-12-20T08:02:38;7.35;;;4.25;;
62711;SDS011;48772;55.586;37.730;2022-12-20T08:05:25;6.30;;;3.22;;
62711;SDS011;48772;55.586;37.730;2022-12-20T08:07:56;4.60;;;2.72;;
62711;SDS011;48772;55.586;37.730;2022-12-20T08:10:24;7.47;;;4.32;;
62711;SDS011;48772;55.586;37.730;2022-12-20T08:12:56;6.18;;;3.47;;
62711;SDS011;48772;55.586;37.730;2022-12-20T08:15:33;9.75;;;4.18;;
62711;SDS011;48772;55.586;37.730;2022-12-20T08:18:11;7.43;;;3.95;;
62711;SDS011;48772;55.586;37.730;2022-12-20T08:20:50;6.85;;;4.18;;
62711;SDS011;48772;55.586;37.730;2022-12-20T08:23:20;11.00;;;5.18;;
62711;SDS011;48772;55.586;37.730;2022-12-20T08:29:08;10.15;;;5.63;;
62711;SDS011;48772;55.586;37.730;2022-12-20T08:31:42;5.13;;;3.63;;
62711;SDS011;48772;55.586;37.730;2022-12-20T08:34:09;4.22;;;2.70;;
62711;SDS011;48772;55.586;37.730;2022-12-20T08:36:41;6.03;;;3.72;;
62711;SDS011;48772;55.586;37.730;2022-12-20T08:39:35;5.35;;;3.47;;
62711;SDS011;48772;55.586;37.730;2022-12-20T08:42:03;6.30;;;4.60;;
62711;SDS011;48772;55.586;37.730;2022-12-20T08:44:32;8.82;;;3.92;;
62711;SDS011;48772;55.586;37.730;2022-12-20T08:47:02;4.63;;;3.58;;
62711;SDS011;48772;55.586;37.730;2022-12-20T08:49:28;6.55;;;4.20;;
62711;SDS011;48772;55.586;37.730;2022-12-20T08:51:57;9.13;;;4.32;;
62711;SDS011;48772;55.586;37.730;2022-12-20T08:54:24;5.47;;;3.63;;
62711;SDS011;48772;55.586;37.730;2022-12-20T08:56:56;5.30;;;2.38;;
62711;SDS011;48772;55.586;37.730;2022-12-20T09:02:05;5.85;;;3.85;;
62711;SDS011;48772;55.586;37.730;2022-12-20T09:04:34;6.55;;;3.22;;
62711;SDS011;48772;55.586;37.730;2022-12-20T09:07:32;4.70;;;3.03;;
62711;SDS011;48772;55.586;37.730;2022-12-20T09:10:01;6.97;;;3.88;;
62711;SDS011;48772;55.586;37.730;2022-12-20T09:12:29;5.80;;;3.72;;
62711;SDS011;48772;55.586;37.730;2022-12-20T09:14:58;5.82;;;3.67;;
62711;SDS011;48772;55.586;37.730;2022-12-20T09:17:23;5.72;;;3.97;;
62711;SDS011;48772;55.586;37.730;2022-12-20T09:19:50;3.20;;;2.53;;
62711;SDS011;48772;55.586;37.730;2022-12-20T09:22:25;5.65;;;2.80;;
62711;SDS011;48772;55.586;37.730;2022-12-20T09:32:24;3.83;;;2.67;;
62711;SDS011;48772;55.586;37.730;2022-12-20T09:41:50;5.45;;;3.75;;
62711;SDS011;48772;55.586;37.730;2022-12-20T09:47:03;6.03;;;3.03;;
62711;SDS011;48772;55.586;37.730;2022-12-20T09:49:33;5.07;;;3.13;;
62711;SDS011;48772;55.586;37.730;2022-12-20T09:55:07;5.43;;;3.13;;
62711;SDS011;48772;55.586;37.730;2022-12-20T10:00:47;5.55;;;3.28;;
62711;SDS011;48772;55.586;37.730;2022-12-20T10:03:32;3.40;;;2.50;;
62711;SDS011;48772;55.586;37.730;2022-12-20T10:06:04;5.90;;;3.50;;
62711;SDS011;48772;55.586;37.730;2022-12-20T10:16:44;4.60;;;2.78;;
62711;SDS011;48772;55.586;37.730;2022-12-20T10:25:33;5.82;;;2.65;;
62711;SDS011;48772;55.586;37.730;2022-12-20T10:28:00;5.60;;;2.88;;
62711;SDS011;48772;55.586;37.730;2022-12-20T10:30:30;4.93;;;2.65;;
62711;SDS011;48772;55.586;37.730;2022-12-20T10:32:57;4.97;;;2.83;;
62711;SDS011;48772;55.586;37.730;2022-12-20T10:35:28;6.53;;;3.40;;
62711;SDS011;48772;55.586;37.730;2022-12-20T10:38:11;4.90;;;2.88;;
62711;SDS011;48772;55.586;37.730;2022-12-20T10:40:42;3.17;;;2.60;;
62711;SDS011;48772;55.586;37.730;2022-12-20T10:43:17;4.38;;;3.05;;
62711;SDS011;48772;55.586;37.730;2022-12-20T10:45:59;4.78;;;2.83;;
62711;SDS011;48772;55.586;37.730;2022-12-20T10:48:41;3.63;;;2.78;;
62711;SDS011;48772;55.586;37.730;2022-12-20T10:56:21;4.53;;;3.20;;
62711;SDS011;48772;55.586;37.730;2022-12-20T10:58:51;5.90;;;3.35;;
62711;SDS011;48772;55.586;37.730;2022-12-20T11:01:35;4.45;;;2.58;;
62711;SDS011;48772;55.586;37.730;2022-12-20T11:04:06;4.32;;;3.03;;
62711;SDS011;48772;55.586;37.730;2022-12-20T11:06:49;5.63;;;3.90;;
62711;SDS011;48772;55.586;37.730;2022-12-20T11:14:35;3.95;;;2.83;;
62711;SDS011;48772;55.586;37.730;2022-12-20T11:17:13;4.03;;;2.83;;
62711;SDS011;48772;55.586;37.730;2022-12-20T11:19:58;5.43;;;2.78;;
62711;SDS011;48772;55.586;37.730;2022-12-20T11:22:50;4.88;;;2.70;;
62711;SDS011;48772;55.586;37.730;2022-12-20T11:42:16;4.78;;;3.30;;
62711;SDS011;48772;55.586;37.730;2022-12-20T11:44:46;3.45;;;2.13;;
62711;SDS011;48772;55.586;37.730;2022-12-20T11:47:28;4.55;;;2.83;;
62711;SDS011;48772;55.586;37.730;2022-12-20T11:50:14;3.42;;;2.17;;
62711;SDS011;48772;55.586;37.730;2022-12-20T11:53:12;4.25;;;3.05;;
62711;SDS011;48772;55.586;37.730;2022-12-20T11:55:48;4.93;;;2.78;;
62711;SDS011;48772;55.586;37.730;2022-12-20T12:01:13;5.47;;;2.95;;
62711;SDS011;48772;55.586;37.730;2022-12-20T12:03:44;5.75;;;3.20;;
62711;SDS011;48772;55.586;37.730;2022-12-20T12:06:24;7.93;;;3.80;;
62711;SDS011;48772;55.586;37.730;2022-12-20T12:08:58;4.55;;;2.70;;
62711;SDS011;48772;55.586;37.730;2022-12-20T12:11:37;4.28;;;2.75;;
62711;SDS011;48772;55.586;37.730;2022-12-20T12:14:17;5.93;;;3.15;;
62711;SDS011;48772;55.586;37.730;2022-12-20T12:16:56;5.32;;;2.70;;
62711;SDS011;48772;55.586;37.730;2022-12-20T12:19:32;6.82;;;3.25;;
62711;SDS011;48772;55.586;37.730;2022-12-20T12:22:04;6.70;;;3.47;;
62711;SDS011;48772;55.586;37.730;2022-12-20T12:24:39;4.53;;;2.75;;
62711;SDS011;48772;55.586;37.730;2022-12-20T12:27:11;5.50;;;2.90;;
62711;SDS011;48772;55.586;37.730;2022-12-20T12:29:50;4.07;;;2.50;;
62711;SDS011;48772;55.586;37.730;2022-12-20T12:32:22;6.05;;;3.42;;
62711;SDS011;48772;55.586;37.730;2022-12-20T12:43:43;7.97;;;3.85;;
62711;SDS011;48772;55.586;37.730;2022-12-20T12:46:17;6.68;;;4.35;;
62711;SDS011;48772;55.586;37.730;2022-12-20T12:48:56;10.13;;;4.32;;
62711;SDS011;48772;55.586;37.730;2022-12-20T12:51:38;6.65;;;3.85;;
62711;SDS011;48772;55.586;37.730;2022-12-20T12:54:16;8.45;;;3.50;;
62711;SDS011;48772;55.586;37.730;2022-12-20T12:56:47;7.40;;;3.13;;
62711;SDS011;48772;55.586;37.730;2022-12-20T13:20:20;11.70;;;5.32;;
62711;SDS011;48772;55.586;37.730;2022-12-20T13:25:41;7.53;;;3.60;;
62711;SDS011;48772;55.586;37.730;2022-12-20T13:28:53;7.25;;;4.00;;
62711;SDS011;48772;55.586;37.730;2022-12-20T13:33:38;13.57;;;4.07;;
62711;SDS011;48772;55.586;37.730;2022-12-20T13:36:29;9.00;;;4.97;;
62711;SDS011;48772;55.586;37.730;2022-12-20T13:38:59;6.80;;;3.45;;
62711;SDS011;48772;55.586;37.730;2022-12-20T13:41:36;8.23;;;4.38;;
62711;SDS011;48772;55.586;37.730;2022-12-20T13:46:41;6.63;;;3.13;;
62711;SDS011;48772;55.586;37.730;2022-12-20T13:49:14;4.13;;;2.58;;
62711;SDS011;48772;55.586;37.730;2022-12-20T13:52:11;5.93;;;3.20;;
62711;SDS011;48772;55.586;37.730;2022-12-20T13:54:40;12.20;;;4.50;;
62711;SDS011;48772;55.586;37.730;2022-12-20T13:57:07;9.07;;;3.95;;
62711;SDS011;48772;55.586;37.730;2022-12-20T13:59:39;9.55;;;4.57;;
62711;SDS011;48772;55.586;37.730;2022-12-20T14:02:15;7.18;;;3.33;;
62711;SDS011;48772;55.586;37.730;2022-12-20T14:07:54;5.10;;;3.28;;
62711;SDS011;48772;55.586;37.730;2022-12-20T14:10:25;12.15;;;4.60;;
62711;SDS011;48772;55.586;37.730;2022-12-20T14:12:53;4.32;;;2.53;;
62711;SDS011;48772;55.586;37.730;2022-12-20T14:15:27;5.35;;;3.00;;
62711;SDS011;48772;55.586;37.730;2022-12-20T14:18:04;2.97;;;2.42;;
62711;SDS011;48772;55.586;37.730;2022-12-20T14:20:40;9.80;;;4.93;;
62711;SDS011;48772;55.586;37.730;2022-12-20T14:23:21;14.40;;;3.50;;
62711;SDS011;48772;55.586;37.730;2022-12-20T14:25:50;5.97;;;2.92;;
62711;SDS011;48772;55.586;37.730;2022-12-20T14:28:26;5.75;;;2.60;;
62711;SDS011;48772;55.586;37.730;2022-12-20T14:31:04;6.97;;;3.90;;
62711;SDS011;48772;55.586;37.730;2022-12-20T14:33:36;8.43;;;3.60;;
62711;SDS011;48772;55.586;37.730;2022-12-20T14:36:23;9.48;;;5.13;;
62711;SDS011;48772;55.586;37.730;2022-12-20T14:38:57;11.00;;;4.72;;
62711;SDS011;48772;55.586;37.730;2022-12-20T14:44:02;11.23;;;2.80;;
62711;SDS011;48772;55.586;37.730;2022-12-20T14:46:38;8.45;;;4.75;;
62711;SDS011;48772;55.586;37.730;2022-12-20T14:49:06;5.53;;;3.22;;
62711;SDS011;48772;55.586;37.730;2022-12-20T14:51:47;5.25;;;3.17;;
62711;SDS011;48772;55.586;37.730;2022-12-20T14:54:24;7.72;;;3.83;;
62711;SDS011;48772;55.586;37.730;2022-12-20T14:56:59;5.67;;;3.00;;
62711;SDS011;48772;55.586;37.730;2022-12-20T14:59:26;9.45;;;4.60;;
62711;SDS011;48772;55.586;37.730;2022-12-20T15:01:53;10.52;;;4.97;;
62711;SDS011;48772;55.586;37.730;2022-12-20T15:06:59;10.23;;;4.83;;
62711;SDS011;48772;55.586;37.730;2022-12-20T15:09:26;8.27;;;4.38;;
62711;SDS011;48772;55.586;37.730;2022-12-20T15:11:53;8.57;;;4.57;;
62711;SDS011;48772;55.586;37.730;2022-12-20T15:16:58;9.85;;;5.07;;
62711;SDS011;48772;55.586;37.730;2022-12-20T15:19:24;9.43;;;4.85;;
62711;SDS011;48772;55.586;37.730;2022-12-20T15:21:53;10.82;;;5.70;;
62711;SDS011;48772;55.586;37.730;2022-12-20T15:24:21;9.80;;;5.13;;
62711;SDS011;48772;55.586;37.730;2022-12-20T15:26:51;17.15;;;7.88;;
62711;SDS011;48772;55.586;37.730;2022-12-20T15:29:18;13.98;;;6.45;;
62711;SDS011;48772;55.586;37.730;2022-12-20T15:32:05;10.20;;;5.50;;
62711;SDS011;48772;55.586;37.730;2022-12-20T15:34:44;11.77;;;5.53;;
62711;SDS011;48772;55.586;37.730;2022-12-20T15:37:11;10.70;;;5.03;;
62711;SDS011;48772;55.586;37.730;2022-12-20T15:39:39;8.98;;;4.05;;
62711;SDS011;48772;55.586;37.730;2022-12-20T15:42:05;13.90;;;4.45;;
62711;SDS011;48772;55.586;37.730;2022-12-20T15:44:34;7.80;;;4.00;;
62711;SDS011;48772;55.586;37.730;2022-12-20T15:47:02;8.38;;;3.92;;
62711;SDS011;48772;55.586;37.730;2022-12-20T15:49:29;16.98;;;4.93;;
62711;SDS011;48772;55.586;37.730;2022-12-20T15:51:59;10.68;;;3.95;;
62711;SDS011;48772;55.586;37.730;2022-12-20T15:54:34;6.55;;;3.47;;
62711;SDS011;48772;55.586;37.730;2022-12-20T15:57:03;9.13;;;4.23;;
62711;SDS011;48772;55.586;37.730;2022-12-20T15:59:45;13.70;;;4.25;;
62711;SDS011;48772;55.586;37.730;2022-12-20T16:02:21;10.32;;;4.97;;
62711;SDS011;48772;55.586;37.730;2022-12-20T16:04:49;7.90;;;4.47;;
62711;SDS011;48772;55.586;37.730;2022-12-20T16:07:15;6.00;;;3.05;;
62711;SDS011;48772;55.586;37.730;2022-12-20T16:09:41;13.30;;;4.70;;
62711;SDS011;48772;55.586;37.730;2022-12-20T16:12:10;12.15;;;5.25;;
62711;SDS011;48772;55.586;37.730;2022-12-20T16:14:42;15.60;;;6.35;;
62711;SDS011;48772;55.586;37.730;2022-12-20T16:17:14;10.40;;;4.70;;
62711;SDS011;48772;55.586;37.730;2022-12-20T16:19:44;8.37;;;4.37;;
62711;SDS011;48772;55.586;37.730;2022-12-20T16:22:21;9.03;;;4.47;;
62711;SDS011;48772;55.586;37.730;2022-12-20T16:24:48;9.57;;;3.75;;
62711;SDS011;48772;55.586;37.730;2022-12-20T16:27:16;14.00;;;5.67;;
62711;SDS011;48772;55.586;37.730;2022-12-20T16:29:46;12.00;;;4.77;;
62711;SDS011;48772;55.586;37.730;2022-12-20T16:32:13;5.93;;;3.38;;
62711;SDS011;48772;55.586;37.730;2022-12-20T16:34:40;11.17;;;5.43;;
62711;SDS011;48772;55.586;37.730;2022-12-20T16:37:07;10.13;;;4.87;;
62711;SDS011;48772;55.586;37.730;2022-12-20T16:39:33;9.20;;;4.30;;
62711;SDS011;48772;55.586;37.730;2022-12-20T16:41:59;12.88;;;4.95;;
62711;SDS011;48772;55.586;37.730;2022-12-20T16:44:25;15.50;;;5.80;;
62711;SDS011;48772;55.586;37.730;2022-12-20T16:46:51;7.78;;;4.30;;
62711;SDS011;48772;55.586;37.730;2022-12-20T16:49:19;6.93;;;2.90;;
62711;SDS011;48772;55.586;37.730;2022-12-20T16:51:45;11.90;;;5.63;;
62711;SDS011;48772;55.586;37.730;2022-12-20T16:54:17;10.23;;;4.50;;
62711;SDS011;48772;55.586;37.730;2022-12-20T16:56:45;11.00;;;5.40;;
62711;SDS011;48772;55.586;37.730;2022-12-20T16:59:30;11.93;;;5.85;;
62711;SDS011;48772;55.586;37.730;2022-12-20T17:02:37;8.00;;;4.37;;
62711;SDS011;48772;55.586;37.730;2022-12-20T17:05:03;6.70;;;3.87;;
62711;SDS011;48772;55.586;37.730;2022-12-20T17:07:30;10.00;;;5.07;;
62711;SDS011;48772;55.586;37.730;2022-12-20T17:10:01;10.13;;;5.77;;
62711;SDS011;48772;55.586;37.730;2022-12-20T17:12:28;10.70;;;4.30;;
62711;SDS011;48772;55.586;37.730;2022-12-20T17:14:55;8.80;;;4.70;;